Time;durP1;ratioP1;P1;durP2;ratioP2;P2;SDS_P1;SDS_P2;PMS_P1;PMS_P2;Temp;Humidity;BMP_temperature;BMP_pressure;BME280_temperature;BME280_humidity;BME280_pressure;Samples;Min_cycle;Max_cycle;Signal;HPM_P1;HPM_P2
2022/04/15 00:01:25;;;;;;;76.40;50.70;;;11.90;99.90;;;;;;5089851;28;20089;-59
2022/04/15 00:03:52;;;;;;;77.07;50.80;;;12.10;99.90;;;;;;5089985;28;20343;-58
2022/04/15 00:06:20;;;;;;;70.90;49.67;;;12.10;99.90;;;;;;5089573;28;20114;-58
2022/04/15 00:08:47;;;;;;;67.72;46.40;;;12.00;99.90;;;;;;5090387;28;20112;-58
2022/04/15 00:11:14;;;;;;;67.28;46.63;;;12.00;99.90;;;;;;5089379;28;20025;-58
2022/04/15 00:13:41;;;;;;;70.88;45.15;;;11.90;99.90;;;;;;5089707;28;20404;-58
2022/04/15 00:16:07;;;;;;;69.95;45.08;;;11.90;99.90;;;;;;5092150;28;20516;-58
2022/04/15 00:18:34;;;;;;;70.13;48.47;;;11.90;99.90;;;;;;5094224;28;20364;-58
2022/04/15 00:21:00;;;;;;;66.82;46.13;;;11.90;99.90;;;;;;5093715;28;20419;-58
2022/04/15 00:23:26;;;;;;;67.95;46.75;;;11.90;99.90;;;;;;5094109;28;20032;-58
2022/04/15 00:25:53;;;;;;;66.55;45.88;;;11.90;99.90;;;;;;5094487;28;20509;-58
2022/04/15 00:28:19;;;;;;;72.00;48.13;;;11.90;99.90;;;;;;5094033;28;20040;-58
2022/04/15 00:30:45;;;;;;;67.28;48.45;;;11.90;99.90;;;;;;5094169;28;20369;-58
2022/04/15 00:33:11;;;;;;;66.43;47.13;;;11.80;99.90;;;;;;5093676;28;20062;-58
2022/04/15 00:35:37;;;;;;;69.90;48.58;;;11.60;99.90;;;;;;5093348;28;20020;-58
2022/04/15 00:38:02;;;;;;;69.80;48.63;;;11.50;99.90;;;;;;5091855;28;20028;-58
2022/04/15 00:40:28;;;;;;;76.78;50.47;;;11.50;99.90;;;;;;5093362;28;20093;-58
2022/04/15 00:42:54;;;;;;;73.80;51.40;;;11.50;99.90;;;;;;5093421;28;20024;-58
2022/04/15 00:45:19;;;;;;;79.32;54.47;;;11.60;99.90;;;;;;5094232;28;20054;-58
2022/04/15 00:47:55;;;;;;;86.80;56.95;;;11.90;99.90;;;;;;5093804;28;20107;-58
2022/04/15 00:50:23;;;;;;;77.82;52.20;;;11.90;99.90;;;;;;5093766;28;20048;-58
2022/04/15 00:52:50;;;;;;;81.43;52.85;;;11.70;99.90;;;;;;5094112;28;20070;-58
2022/04/15 00:55:18;;;;;;;74.50;51.15;;;11.60;99.90;;;;;;5093538;28;20426;-58
2022/04/15 00:58:00;;;;;;;75.28;52.33;;;11.50;99.90;;;;;;5093573;28;20043;-58
2022/04/15 01:00:28;;;;;;;78.43;53.30;;;11.50;99.90;;;;;;5093735;28;20024;-58
2022/04/15 01:02:57;;;;;;;79.30;52.85;;;11.50;99.90;;;;;;5093801;28;20032;-58
2022/04/15 01:05:23;;;;;;;78.82;53.92;;;11.40;99.90;;;;;;5092901;28;20028;-58
2022/04/15 01:07:50;;;;;;;82.90;55.28;;;11.50;99.90;;;;;;5092736;28;20056;-58
2022/04/15 01:10:18;;;;;;;79.93;54.10;;;11.50;99.90;;;;;;5092520;28;20032;-58
2022/04/15 01:12:46;;;;;;;82.22;54.33;;;11.40;99.90;;;;;;5093009;28;20032;-58
2022/04/15 01:15:14;;;;;;;87.85;56.55;;;11.30;99.90;;;;;;5093634;28;20031;-58
2022/04/15 01:17:40;;;;;;;94.65;59.63;;;11.40;99.90;;;;;;5092884;28;20059;-58
2022/04/15 01:20:11;;;;;;;91.20;60.65;;;11.60;99.90;;;;;;5091534;28;20439;-58
2022/04/15 01:22:42;;;;;;;90.53;58.67;;;11.60;99.90;;;;;;5093443;28;20496;-58
2022/04/15 01:25:10;;;;;;;83.60;55.15;;;11.40;99.90;;;;;;5093757;28;20004;-58
2022/04/15 01:27:38;;;;;;;81.88;56.08;;;11.20;99.90;;;;;;5092391;28;20385;-58
2022/04/15 01:30:06;;;;;;;79.82;54.42;;;11.10;99.90;;;;;;5092135;28;20599;-58
2022/04/15 01:32:32;;;;;;;81.05;55.25;;;11.10;99.90;;;;;;5092646;28;20048;-59
2022/04/15 01:34:58;;;;;;;79.53;55.60;;;11.10;99.90;;;;;;5092850;28;20020;-58
2022/04/15 01:37:23;;;;;;;82.80;55.47;;;11.10;99.90;;;;;;5091475;28;20016;-58
2022/04/15 01:39:50;;;;;;;80.35;54.47;;;11.00;99.90;;;;;;5092309;28;20499;-58
2022/04/15 01:42:16;;;;;;;79.60;56.53;;;11.00;99.90;;;;;;5092247;28;20520;-58
2022/04/15 01:44:43;;;;;;;77.97;54.63;;;10.90;99.90;;;;;;5092207;28;20428;-58
2022/04/15 01:47:10;;;;;;;80.93;54.85;;;10.90;99.90;;;;;;5090702;28;20028;-58
2022/04/15 01:49:36;;;;;;;80.70;55.97;;;10.80;99.90;;;;;;5092408;28;20047;-58
2022/04/15 01:52:03;;;;;;;89.90;59.92;;;10.70;99.90;;;;;;5092215;28;20469;-58
2022/04/15 01:54:28;;;;;;;84.97;57.58;;;10.70;99.90;;;;;;5091775;28;20039;-58
2022/04/15 01:56:55;;;;;;;88.03;58.05;;;10.70;99.90;;;;;;5092093;28;20376;-58
2022/04/15 01:59:21;;;;;;;87.90;58.72;;;10.60;99.90;;;;;;5090638;28;20020;-58
2022/04/15 02:01:47;;;;;;;89.85;61.58;;;10.50;99.90;;;;;;5090284;28;20020;-58
2022/04/15 02:04:13;;;;;;;86.72;59.58;;;10.60;99.90;;;;;;5091766;28;20035;-58
2022/04/15 02:06:38;;;;;;;96.32;64.00;;;10.60;99.90;;;;;;5090361;28;20020;-58
2022/04/15 02:09:04;;;;;;;91.78;61.15;;;10.70;99.90;;;;;;5091373;28;20032;-58
2022/04/15 02:11:30;;;;;;;92.45;63.30;;;10.60;99.90;;;;;;5091855;28;20027;-58
2022/04/15 02:13:55;;;;;;;99.38;67.35;;;10.70;99.90;;;;;;5091404;28;20047;-58
2022/04/15 02:16:21;;;;;;;119.60;75.93;;;10.80;99.90;;;;;;5090534;28;20020;-58
2022/04/15 02:18:47;;;;;;;121.82;76.63;;;11.00;99.90;;;;;;5091470;28;20028;-58
2022/04/15 02:21:12;;;;;;;116.07;76.10;;;10.90;99.90;;;;;;5091264;28;20388;-58
2022/04/15 02:23:38;;;;;;;97.05;66.72;;;10.70;99.90;;;;;;5092175;28;20028;-58
2022/04/15 02:26:03;;;;;;;104.32;70.20;;;10.60;99.90;;;;;;5091812;28;20036;-58
2022/04/15 02:28:29;;;;;;;101.28;69.75;;;10.50;99.90;;;;;;5091742;28;20385;-58
2022/04/15 02:30:55;;;;;;;99.03;66.65;;;10.50;99.90;;;;;;5091625;28;20128;-58
2022/04/15 02:33:20;;;;;;;103.55;66.28;;;10.40;99.90;;;;;;5092073;28;20089;-58
2022/04/15 02:35:46;;;;;;;108.03;69.15;;;10.40;99.90;;;;;;5092338;28;20020;-58
2022/04/15 02:38:12;;;;;;;104.97;72.13;;;10.40;99.90;;;;;;5089704;28;20024;-58
2022/04/15 02:40:38;;;;;;;107.50;71.20;;;10.40;99.90;;;;;;5091750;28;20050;-58
2022/04/15 02:43:04;;;;;;;102.97;70.10;;;10.40;99.90;;;;;;5090241;28;20034;-58
2022/04/15 02:45:30;;;;;;;102.82;68.80;;;10.40;99.90;;;;;;5090053;28;20038;-58
2022/04/15 02:47:56;;;;;;;103.57;72.25;;;10.30;99.90;;;;;;5091134;28;20036;-58
2022/04/15 02:50:22;;;;;;;103.97;70.03;;;10.40;99.90;;;;;;5089995;28;20028;-58
2022/04/15 02:52:48;;;;;;;105.20;70.55;;;10.40;99.90;;;;;;5091234;28;20039;-58
2022/04/15 02:55:14;;;;;;;114.55;74.28;;;10.40;99.90;;;;;;5090672;28;20027;-58
2022/04/15 02:57:40;;;;;;;115.10;75.82;;;10.40;99.90;;;;;;5091010;28;20024;-58
2022/04/15 03:00:06;;;;;;;122.75;78.82;;;10.50;99.90;;;;;;5090952;28;20023;-58
2022/04/15 03:02:32;;;;;;;118.38;77.10;;;10.30;99.90;;;;;;5091007;28;20032;-58
2022/04/15 03:04:58;;;;;;;119.55;78.05;;;10.20;99.90;;;;;;5091174;28;20027;-58
2022/04/15 03:07:24;;;;;;;122.35;80.30;;;10.20;99.90;;;;;;5091218;28;20421;-58
2022/04/15 03:09:49;;;;;;;113.55;75.25;;;10.20;99.90;;;;;;5090007;28;20024;-58
2022/04/15 03:12:15;;;;;;;114.35;76.63;;;10.10;99.90;;;;;;5091164;28;20054;-58
2022/04/15 03:14:41;;;;;;;118.63;79.97;;;10.10;99.90;;;;;;5091059;28;20039;-58
2022/04/15 03:17:07;;;;;;;127.72;82.60;;;10.10;99.90;;;;;;5091206;28;20020;-58
2022/04/15 03:19:33;;;;;;;106.95;73.65;;;10.00;99.90;;;;;;5090710;28;20016;-58
2022/04/15 03:21:59;;;;;;;112.90;74.97;;;9.90;99.90;;;;;;5090206;28;20027;-58
2022/04/15 03:24:24;;;;;;;103.38;70.65;;;9.90;99.90;;;;;;5090989;28;20521;-58
2022/04/15 03:26:50;;;;;;;101.50;71.20;;;9.80;99.90;;;;;;5090870;28;20060;-58
2022/04/15 03:29:15;;;;;;;119.00;77.40;;;9.70;99.90;;;;;;5090530;28;20032;-58
2022/04/15 03:31:41;;;;;;;121.70;81.40;;;9.70;99.90;;;;;;5090135;28;20028;-58
2022/04/15 03:34:07;;;;;;;123.75;83.40;;;9.80;99.90;;;;;;5090685;28;20485;-58
2022/04/15 03:36:33;;;;;;;121.25;79.82;;;9.80;99.90;;;;;;5090451;28;20133;-58
2022/04/15 03:38:58;;;;;;;135.52;84.35;;;9.80;99.90;;;;;;5090335;28;20063;-58
2022/04/15 03:41:24;;;;;;;139.50;85.68;;;9.80;99.90;;;;;;5090651;28;20028;-58
2022/04/15 03:43:50;;;;;;;151.98;84.38;;;9.90;99.90;;;;;;5090375;28;20055;-58
2022/04/15 03:46:16;;;;;;;165.63;84.75;;;9.90;99.90;;;;;;5090381;28;20024;-58
2022/04/15 03:48:42;;;;;;;180.38;82.70;;;9.80;99.90;;;;;;5090604;28;20028;-58
2022/04/15 03:51:08;;;;;;;170.35;82.28;;;9.90;99.90;;;;;;5094432;28;20024;-58
2022/04/15 03:53:35;;;;;;;178.07;80.75;;;9.90;99.90;;;;;;5094351;28;20027;-58
2022/04/15 03:56:01;;;;;;;225.80;80.93;;;9.90;99.90;;;;;;5093035;28;20032;-58
2022/04/15 03:58:26;;;;;;;138.85;76.88;;;9.90;99.90;;;;;;5094441;28;20024;-58
2022/04/15 04:00:53;;;;;;;162.55;68.47;;;9.80;99.90;;;;;;5094406;28;20377;-58
2022/04/15 04:03:19;;;;;;;145.05;67.32;;;9.70;99.90;;;;;;5094554;28;20021;-58
2022/04/15 04:05:44;;;;;;;108.47;65.10;;;9.70;99.90;;;;;;5094560;28;20031;-58
2022/04/15 04:08:10;;;;;;;96.22;63.75;;;9.70;99.90;;;;;;5093142;28;20069;-58
2022/04/15 04:10:36;;;;;;;90.47;60.45;;;9.60;99.90;;;;;;5094163;28;20020;-58
2022/04/15 04:13:02;;;;;;;78.47;57.67;;;9.50;99.90;;;;;;5094044;28;20081;-58
2022/04/15 04:15:29;;;;;;;71.78;55.17;;;9.40;99.90;;;;;;5094202;28;20035;-57
2022/04/15 04:17:56;;;;;;;72.97;53.72;;;9.30;99.90;;;;;;5094228;28;20054;-57
2022/04/15 04:20:22;;;;;;;67.78;50.78;;;9.20;99.90;;;;;;5094345;28;20017;-58
2022/04/15 04:22:47;;;;;;;68.50;51.58;;;9.10;99.90;;;;;;5093873;28;20021;-58
2022/04/15 04:25:13;;;;;;;66.75;51.53;;;9.10;99.90;;;;;;5094156;28;20026;-58
2022/04/15 04:27:41;;;;;;;65.38;48.30;;;9.10;99.90;;;;;;5093899;28;20605;-58
2022/04/15 04:30:08;;;;;;;66.85;48.45;;;9.10;99.90;;;;;;5093815;28;20057;-58
2022/04/15 04:32:34;;;;;;;66.32;47.53;;;9.10;99.90;;;;;;5093796;28;20648;-58
2022/04/15 04:35:00;;;;;;;65.60;47.83;;;9.00;99.90;;;;;;5093872;28;20050;-58
2022/04/15 04:37:25;;;;;;;61.88;46.67;;;9.00;99.90;;;;;;5093797;28;20109;-58
2022/04/15 04:39:51;;;;;;;65.47;48.50;;;8.90;99.90;;;;;;5093742;28;20158;-58
2022/04/15 04:42:18;;;;;;;67.85;49.42;;;8.80;99.90;;;;;;5094062;28;20025;-58
2022/04/15 04:44:45;;;;;;;67.97;50.03;;;8.90;99.90;;;;;;5093603;28;20026;-58
2022/04/15 04:47:11;;;;;;;66.30;48.45;;;8.80;99.90;;;;;;5094000;28;20039;-58
2022/04/15 04:49:37;;;;;;;66.22;48.63;;;8.80;99.90;;;;;;5091997;28;20070;-58
2022/04/15 04:52:04;;;;;;;64.72;47.05;;;8.80;99.90;;;;;;5093494;28;20064;-58
2022/04/15 04:54:30;;;;;;;58.20;44.92;;;8.80;99.90;;;;;;5091969;28;20541;-58
2022/04/15 04:56:56;;;;;;;49.97;40.50;;;8.80;99.90;;;;;;5093215;28;20031;-58
2022/04/15 04:59:29;;;;;;;50.97;40.42;;;8.70;99.90;;;;;;5092343;28;20385;-58
2022/04/15 05:01:55;;;;;;;53.80;41.78;;;8.60;99.90;;;;;;5092290;28;20032;-58
2022/04/15 05:04:21;;;;;;;53.25;40.47;;;8.60;99.90;;;;;;5093704;28;20506;-58
2022/04/15 05:06:46;;;;;;;54.17;41.50;;;8.60;99.90;;;;;;5093865;28;20107;-58
2022/04/15 05:09:12;;;;;;;54.83;43.65;;;8.60;99.90;;;;;;5093734;28;20016;-58
2022/04/15 05:11:37;;;;;;;58.33;43.28;;;8.60;99.90;;;;;;5093706;28;20031;-58
2022/04/15 05:14:03;;;;;;;58.63;43.70;;;8.60;99.90;;;;;;5093680;28;20032;-58
2022/04/15 05:16:29;;;;;;;52.90;41.50;;;8.70;99.90;;;;;;5093284;28;20385;-58
2022/04/15 05:18:54;;;;;;;53.50;41.05;;;8.80;99.90;;;;;;5093904;28;20020;-58
2022/04/15 05:21:20;;;;;;;48.58;39.42;;;8.70;99.90;;;;;;5094553;28;20020;-58
2022/04/15 05:23:46;;;;;;;47.13;39.25;;;8.70;99.90;;;;;;5093140;28;20021;-58
2022/04/15 05:26:12;;;;;;;43.00;37.72;;;8.70;99.90;;;;;;5093829;28;20431;-58
2022/04/15 05:28:38;;;;;;;45.60;37.78;;;8.80;99.90;;;;;;5093409;28;20078;-58
2022/04/15 05:31:04;;;;;;;42.20;36.38;;;8.80;99.90;;;;;;5093493;28;20027;-58
2022/04/15 05:33:29;;;;;;;39.25;34.72;;;8.80;99.90;;;;;;5091393;28;20040;-58
2022/04/15 05:35:55;;;;;;;37.85;33.78;;;8.80;99.90;;;;;;5093221;28;20055;-58
2022/04/15 05:38:21;;;;;;;39.67;33.80;;;8.80;99.90;;;;;;5092935;28;20436;-58
2022/04/15 05:40:46;;;;;;;37.35;32.53;;;8.80;99.90;;;;;;5093202;28;20024;-58
2022/04/15 05:43:12;;;;;;;34.72;31.02;;;8.80;99.90;;;;;;5091440;28;20055;-58
2022/04/15 05:45:37;;;;;;;37.15;32.97;;;8.80;99.90;;;;;;5091640;28;20065;-58
2022/04/15 05:48:03;;;;;;;37.83;32.75;;;8.70;99.90;;;;;;5092202;28;20422;-58
2022/04/15 05:50:29;;;;;;;42.60;33.50;;;8.80;99.90;;;;;;5092242;28;20111;-58
2022/04/15 05:52:54;;;;;;;40.40;32.53;;;8.90;99.90;;;;;;5092319;28;20089;-58
2022/04/15 05:55:20;;;;;;;43.83;32.85;;;9.00;99.90;;;;;;5091087;28;20388;-58
2022/04/15 05:57:46;;;;;;;45.75;34.00;;;9.00;99.90;;;;;;5092464;28;20020;-58
2022/04/15 06:00:12;;;;;;;47.20;32.22;;;9.00;99.90;;;;;;5093101;28;20024;-58
2022/04/15 06:02:38;;;;;;;51.65;32.70;;;9.10;99.90;;;;;;5092523;28;20030;-58
2022/04/15 06:05:04;;;;;;;57.33;33.45;;;9.30;99.90;;;;;;5091706;28;20020;-58
2022/04/15 06:07:30;;;;;;;55.13;32.85;;;9.40;99.90;;;;;;5090813;28;20101;-58
2022/04/15 06:09:56;;;;;;;57.17;32.53;;;9.50;99.90;;;;;;5092093;28;20024;-58
2022/04/15 06:12:22;;;;;;;60.70;32.88;;;9.50;99.90;;;;;;5091565;28;20025;-58
2022/04/15 06:14:51;;;;;;;59.25;34.00;;;9.50;99.90;;;;;;5091786;28;20024;-58
2022/04/15 06:17:21;;;;;;;71.32;33.50;;;9.60;99.90;;;;;;5091534;28;20024;-58
2022/04/15 06:19:48;;;;;;;53.10;32.80;;;9.80;99.90;;;;;;5091339;28;20112;-58
2022/04/15 06:22:13;;;;;;;52.35;33.20;;;9.90;99.90;;;;;;5092116;28;20051;-58
2022/04/15 06:24:39;;;;;;;49.83;33.83;;;10.00;99.90;;;;;;5091657;28;20121;-58
2022/04/15 06:27:05;;;;;;;59.38;35.75;;;10.10;99.90;;;;;;5089849;28;20055;-58
2022/04/15 06:29:30;;;;;;;52.53;34.63;;;10.20;99.90;;;;;;5091675;28;20027;-58
2022/04/15 06:31:56;;;;;;;52.03;35.92;;;10.50;99.90;;;;;;5090060;28;20028;-58
2022/04/15 06:34:21;;;;;;;57.58;37.20;;;10.70;99.90;;;;;;5091480;28;20020;-58
2022/04/15 06:36:47;;;;;;;58.28;37.33;;;10.60;99.90;;;;;;5090939;28;20078;-58
2022/04/15 06:39:13;;;;;;;62.15;41.35;;;10.80;99.90;;;;;;5091708;28;20224;-58
2022/04/15 06:41:40;;;;;;;64.65;40.78;;;10.90;99.90;;;;;;5089834;28;20051;-58
2022/04/15 06:44:06;;;;;;;58.35;41.05;;;10.90;99.90;;;;;;5091886;28;20032;-58
2022/04/15 06:46:32;;;;;;;59.35;40.72;;;11.00;99.90;;;;;;5091072;28;20024;-58
2022/04/15 06:48:58;;;;;;;56.83;41.67;;;11.10;99.90;;;;;;5091103;28;20035;-58
2022/04/15 06:51:25;;;;;;;59.58;41.28;;;11.20;99.90;;;;;;5091665;28;20024;-58
2022/04/15 06:53:51;;;;;;;65.82;45.00;;;11.20;99.90;;;;;;5090882;28;20035;-58
2022/04/15 06:56:16;;;;;;;65.82;46.60;;;11.50;99.90;;;;;;5090768;28;20020;-58
2022/04/15 06:58:42;;;;;;;68.38;49.00;;;11.70;99.90;;;;;;5090963;28;20104;-58
2022/04/15 07:01:08;;;;;;;67.05;46.22;;;11.70;99.90;;;;;;5091161;28;20107;-58
2022/04/15 07:03:33;;;;;;;62.92;45.83;;;11.70;99.90;;;;;;5090550;28;20062;-58
2022/04/15 07:05:59;;;;;;;62.88;45.15;;;11.90;99.90;;;;;;5099227;28;20023;-58
2022/04/15 07:08:25;;;;;;;66.15;46.15;;;12.00;99.90;;;;;;5103568;28;20430;-58
2022/04/15 07:10:50;;;;;;;58.35;44.33;;;12.10;99.90;;;;;;5093133;28;20020;-58
2022/04/15 07:13:16;;;;;;;67.68;46.47;;;12.20;99.90;;;;;;5090515;28;20024;-57
2022/04/15 07:15:41;;;;;;;64.72;44.83;;;12.30;99.90;;;;;;5092190;28;20031;-57
2022/04/15 07:18:07;;;;;;;63.63;44.63;;;12.30;99.90;;;;;;5090525;28;20024;-57
2022/04/15 07:20:33;;;;;;;62.75;44.38;;;12.40;99.90;;;;;;5090342;28;20058;-57
2022/04/15 07:23:00;;;;;;;58.85;43.13;;;12.60;99.90;;;;;;5091459;28;20103;-57
2022/04/15 07:25:26;;;;;;;54.60;39.75;;;12.80;99.90;;;;;;5089905;28;20058;-57
2022/04/15 07:27:53;;;;;;;49.05;34.85;;;13.70;99.90;;;;;;5089848;28;20107;-57
2022/04/15 07:30:19;;;;;;;46.25;34.80;;;15.30;99.90;;;;;;5090068;28;20032;-58
2022/04/15 07:32:45;;;;;;;42.38;32.75;;;16.50;99.90;;;;;;5089617;28;20056;-58
2022/04/15 07:35:12;;;;;;;41.85;32.10;;;17.00;99.90;;;;;;5090310;28;20052;-58
2022/04/15 07:37:38;;;;;;;38.60;30.25;;;17.70;99.90;;;;;;5090489;28;20021;-58
2022/04/15 07:40:04;;;;;;;39.25;30.05;;;18.50;99.90;;;;;;5090500;28;20361;-58
2022/04/15 07:42:30;;;;;;;37.22;28.00;;;19.20;99.90;;;;;;5090697;28;20024;-58
2022/04/15 07:44:55;;;;;;;34.30;27.35;;;20.10;99.90;;;;;;5090525;28;20039;-58
2022/04/15 07:47:21;;;;;;;34.45;27.40;;;21.10;99.90;;;;;;5091059;28;20390;-58
2022/04/15 07:49:47;;;;;;;37.85;27.27;;;21.30;99.90;;;;;;5090618;28;20020;-58
2022/04/15 07:52:13;;;;;;;38.80;26.30;;;21.70;99.90;;;;;;5088600;28;20429;-58
2022/04/15 07:54:38;;;;;;;32.28;26.15;;;22.10;99.90;;;;;;5090316;28;20126;-58
2022/04/15 07:57:04;;;;;;;32.90;26.45;;;22.40;99.90;;;;;;5090086;28;20017;-59
2022/04/15 07:59:30;;;;;;;34.80;25.75;;;22.60;99.30;;;;;;5090452;28;20493;-59
2022/04/15 08:01:58;;;;;;;34.95;24.73;;;22.40;99.20;;;;;;5090306;28;20039;-59
2022/04/15 08:04:23;;;;;;;33.05;23.33;;;22.40;99.30;;;;;;5090378;28;20524;-59
2022/04/15 08:06:49;;;;;;;27.60;22.65;;;22.70;98.20;;;;;;5090201;28;20028;-67
2022/04/15 08:09:15;;;;;;;26.30;21.52;;;22.90;97.20;;;;;;5090665;28;20031;-60
2022/04/15 08:11:41;;;;;;;27.20;22.38;;;22.80;97.30;;;;;;5090727;28;20386;-58
2022/04/15 08:14:06;;;;;;;26.15;22.45;;;22.70;96.80;;;;;;5090069;28;20499;-58
2022/04/15 08:16:32;;;;;;;27.05;22.88;;;22.70;97.00;;;;;;5089887;28;20024;-59
2022/04/15 08:18:57;;;;;;;28.05;22.80;;;22.70;96.90;;;;;;5089838;28;20538;-59
2022/04/15 08:21:23;;;;;;;31.83;23.98;;;21.90;98.00;;;;;;5089802;28;20069;-58
2022/04/15 08:23:50;;;;;;;31.55;24.23;;;21.80;98.20;;;;;;5090618;28;20397;-58
2022/04/15 08:26:15;;;;;;;30.80;23.55;;;21.40;98.60;;;;;;5089753;28;20035;-59
2022/04/15 08:28:41;;;;;;;27.48;22.15;;;21.40;98.70;;;;;;5089619;28;20035;-58
2022/04/15 08:31:08;;;;;;;31.38;21.73;;;21.00;99.10;;;;;;5089678;28;20035;-58
2022/04/15 08:33:35;;;;;;;24.95;20.02;;;20.90;99.20;;;;;;5089942;28;20287;-58
2022/04/15 08:36:01;;;;;;;29.63;20.98;;;20.70;99.30;;;;;;5090822;28;20043;-58
2022/04/15 08:38:27;;;;;;;27.55;20.40;;;20.70;99.50;;;;;;5093251;28;20137;-57
2022/04/15 08:40:56;;;;;;;21.05;16.30;;;21.20;99.20;;;;;;5094122;28;20511;-59
2022/04/15 08:43:24;;;;;;;23.08;16.65;;;21.70;98.10;;;;;;5093952;28;20024;-59
2022/04/15 08:45:50;;;;;;;24.35;16.38;;;22.20;97.20;;;;;;5093983;28;20058;-58
2022/04/15 08:48:16;;;;;;;25.98;16.65;;;22.70;96.60;;;;;;5093183;28;20525;-59
2022/04/15 08:50:42;;;;;;;20.35;15.15;;;23.10;96.20;;;;;;5093760;28;20058;-59
2022/04/15 08:53:08;;;;;;;16.25;12.93;;;24.10;93.70;;;;;;5093908;28;20027;-59
2022/04/15 08:55:34;;;;;;;14.95;11.07;;;24.00;92.90;;;;;;5093556;28;20024;-59
2022/04/15 08:58:00;;;;;;;15.50;11.85;;;24.10;92.60;;;;;;5093746;28;20039;-59
2022/04/15 09:00:26;;;;;;;18.60;10.70;;;24.50;91.40;;;;;;5093414;28;20020;-59
2022/04/15 09:02:53;;;;;;;14.05;9.07;;;24.00;91.30;;;;;;5093087;28;20546;-59
2022/04/15 09:05:26;;;;;;;13.20;10.35;;;24.80;89.70;;;;;;5092964;28;20412;-59
2022/04/15 09:08:07;;;;;;;13.52;10.60;;;25.20;87.30;;;;;;5093130;28;20202;-59
2022/04/15 09:10:34;;;;;;;14.90;10.50;;;25.20;85.40;;;;;;5092824;28;20063;-59
2022/04/15 09:13:01;;;;;;;11.63;8.75;;;25.50;84.20;;;;;;5093202;28;20028;-59
2022/04/15 09:15:26;;;;;;;13.90;10.05;;;25.80;80.50;;;;;;5093317;28;20031;-59
2022/04/15 09:17:54;;;;;;;15.05;10.00;;;25.50;80.80;;;;;;5093147;28;20032;-59
2022/04/15 09:20:21;;;;;;;16.63;9.15;;;25.80;80.50;;;;;;5093142;28;20020;-59
2022/04/15 09:22:47;;;;;;;15.27;8.98;;;25.20;81.30;;;;;;5093079;28;20020;-59
2022/04/15 09:25:13;;;;;;;12.70;7.93;;;25.10;82.00;;;;;;5093133;28;20032;-59
2022/04/15 09:27:40;;;;;;;9.43;6.55;;;25.50;77.60;;;;;;5092821;28;20088;-59
2022/04/15 09:30:06;;;;;;;12.63;7.40;;;24.80;79.90;;;;;;5092830;28;20511;-59
2022/04/15 09:32:33;;;;;;;10.07;7.82;;;24.90;79.70;;;;;;5092561;28;20043;-59
2022/04/15 09:35:04;;;;;;;11.30;6.95;;;25.30;78.50;;;;;;5092863;28;20035;-59
2022/04/15 09:37:43;;;;;;;13.75;7.60;;;25.30;78.60;;;;;;5092621;28;20020;-59
2022/04/15 09:40:22;;;;;;;10.18;7.85;;;25.00;79.50;;;;;;5092615;28;20028;-59
2022/04/15 09:42:49;;;;;;;11.30;7.07;;;24.50;80.30;;;;;;5092627;28;20058;-59
2022/04/15 09:45:30;;;;;;;8.02;6.25;;;24.40;78.60;;;;;;5092572;28;20107;-59
2022/04/15 09:48:00;;;;;;;12.95;6.63;;;24.50;80.20;;;;;;5092045;28;20028;-59
2022/04/15 09:50:32;;;;;;;10.88;6.70;;;25.40;78.20;;;;;;5092841;28;20075;-59
2022/04/15 09:53:12;;;;;;;8.30;4.90;;;25.20;75.80;;;;;;5092171;28;20025;-59
2022/04/15 09:55:40;;;;;;;9.45;6.00;;;25.90;74.70;;;;;;5092769;28;20024;-59
2022/04/15 09:58:30;;;;;;;8.90;5.85;;;26.50;71.60;;;;;;5092586;28;20116;-59
2022/04/15 10:00:58;;;;;;;7.32;5.35;;;25.70;73.30;;;;;;5092457;28;20050;-59
2022/04/15 10:03:25;;;;;;;8.55;5.82;;;25.60;73.90;;;;;;5092737;28;20500;-59
2022/04/15 10:06:00;;;;;;;10.48;6.68;;;26.00;73.60;;;;;;5091634;28;20031;-59
2022/04/15 10:08:27;;;;;;;9.13;5.68;;;25.00;74.40;;;;;;5091724;28;20099;-59
2022/04/15 10:10:54;;;;;;;10.57;6.57;;;24.70;76.50;;;;;;5091885;28;20020;-59
2022/04/15 10:13:22;;;;;;;11.23;6.30;;;25.80;74.50;;;;;;5091787;28;20031;-59
2022/04/15 10:15:49;;;;;;;9.27;5.60;;;25.20;76.20;;;;;;5089977;28;20016;-59
2022/04/15 10:18:14;;;;;;;12.15;5.55;;;25.60;73.90;;;;;;5091885;28;20085;-60
2022/04/15 10:20:42;;;;;;;8.63;4.90;;;26.30;72.90;;;;;;5091890;28;20389;-60
2022/04/15 10:23:11;;;;;;;8.40;5.20;;;25.80;71.10;;;;;;5091553;28;20024;-60
2022/04/15 10:25:38;;;;;;;9.25;6.43;;;24.60;74.50;;;;;;5091651;28;20120;-60
2022/04/15 10:28:11;;;;;;;9.02;6.30;;;25.00;74.60;;;;;;5091430;28;20516;-59
2022/04/15 10:30:38;;;;;;;9.10;6.68;;;25.10;74.50;;;;;;5090213;28;20056;-60
2022/04/15 10:33:04;;;;;;;11.48;6.78;;;25.30;74.60;;;;;;5091832;28;20500;-59
2022/04/15 10:35:31;;;;;;;9.85;6.80;;;25.10;76.40;;;;;;5090502;28;20492;-60
2022/04/15 10:38:23;;;;;;;13.13;8.70;;;25.50;75.00;;;;;;5091038;28;20030;-59
2022/04/15 10:40:49;;;;;;;9.10;7.65;;;25.70;74.50;;;;;;5090259;28;20572;-59
2022/04/15 10:43:19;;;;;;;10.55;7.18;;;25.50;75.30;;;;;;5091505;28;20021;-59
2022/04/15 10:45:45;;;;;;;8.95;6.85;;;25.30;74.10;;;;;;5091490;28;20377;-59
2022/04/15 10:48:11;;;;;;;9.73;6.30;;;24.70;77.10;;;;;;5091257;28;20099;-59
2022/04/15 10:50:40;;;;;;;9.93;6.22;;;24.90;75.70;;;;;;5087736;28;20119;-59
2022/04/15 10:53:25;;;;;;;8.60;6.50;;;25.50;75.00;;;;;;5090303;28;20388;-59
2022/04/15 10:55:54;;;;;;;9.25;7.30;;;25.30;75.70;;;;;;5091254;28;20020;-60
2022/04/15 10:58:20;;;;;;;10.32;7.55;;;25.70;75.90;;;;;;5090971;28;20020;-60
2022/04/15 11:01:19;;;;;;;9.93;7.57;;;26.30;73.50;;;;;;5091018;28;20020;-59
2022/04/15 11:03:56;;;;;;;9.73;7.70;;;26.70;72.30;;;;;;5091556;28;20547;-59
2022/04/15 11:06:26;;;;;;;9.65;7.22;;;26.90;71.80;;;;;;5090775;28;20114;-59
2022/04/15 11:08:52;;;;;;;11.25;8.50;;;26.40;72.80;;;;;;5090973;28;20114;-59
2022/04/15 11:11:36;;;;;;;10.32;8.10;;;26.30;73.80;;;;;;5091462;28;20506;-59
2022/04/15 11:14:04;;;;;;;9.40;8.02;;;25.10;74.20;;;;;;5090720;28;20023;-59
2022/04/15 11:16:49;;;;;;;9.35;7.88;;;24.90;76.40;;;;;;5090932;28;20243;-59
2022/04/15 11:19:24;;;;;;;11.18;7.75;;;25.70;75.20;;;;;;5091533;28;20016;-59
2022/04/15 11:21:51;;;;;;;12.40;8.38;;;26.00;73.00;;;;;;5091055;28;20020;-60
2022/04/15 11:24:33;;;;;;;9.45;8.50;;;26.90;72.20;;;;;;5090733;28;20032;-59
2022/04/15 11:27:03;;;;;;;12.43;10.13;;;26.30;72.20;;;;;;5090399;28;20028;-60
2022/04/15 11:29:31;;;;;;;12.10;9.48;;;26.50;72.40;;;;;;5090867;28;20064;-60
2022/04/15 11:31:59;;;;;;;11.10;9.25;;;26.70;71.40;;;;;;5088991;28;20051;-59
2022/04/15 11:34:24;;;;;;;11.38;10.07;;;26.00;73.00;;;;;;5090954;28;20036;-59
2022/04/15 11:36:56;;;;;;;12.65;9.98;;;25.90;75.20;;;;;;5090426;28;20020;-59
2022/04/15 11:39:23;;;;;;;11.32;9.52;;;26.00;74.50;;;;;;5090391;28;20039;-59
2022/04/15 11:41:55;;;;;;;16.08;9.05;;;26.40;73.30;;;;;;5090430;28;20200;-59
2022/04/15 11:44:22;;;;;;;10.35;8.77;;;26.30;73.20;;;;;;5089810;28;20024;-59
2022/04/15 11:46:50;;;;;;;11.02;9.10;;;26.00;74.70;;;;;;5090658;28;20401;-59
2022/04/15 11:49:27;;;;;;;9.35;8.18;;;26.60;72.00;;;;;;5090548;28;20039;-59
2022/04/15 11:51:57;;;;;;;11.95;8.45;;;26.50;71.40;;;;;;5090114;28;20016;-58
2022/04/15 11:54:39;;;;;;;11.13;8.70;;;26.70;71.00;;;;;;5090424;28;20039;-58
2022/04/15 11:57:05;;;;;;;;;;;27.50;69.80;;;;;;5090815;28;20441;-59
2022/04/15 11:59:39;;;;;;;9.70;7.88;;;27.30;71.40;;;;;;5090598;28;20422;-59
2022/04/15 12:02:05;;;;;;;13.10;8.82;;;26.60;71.30;;;;;;5090513;28;20028;-59
2022/04/15 12:04:31;;;;;;;11.88;8.68;;;26.60;72.20;;;;;;5090159;28;20441;-58
2022/04/15 12:06:57;;;;;;;12.40;9.77;;;26.60;71.90;;;;;;5090139;28;20016;-58
2022/04/15 12:09:24;;;;;;;10.43;9.25;;;27.00;72.20;;;;;;5090122;28;20696;-59
2022/04/15 12:11:51;;;;;;;11.07;8.07;;;27.20;72.40;;;;;;5093723;28;20055;-58
2022/04/15 12:14:17;;;;;;;10.80;7.40;;;27.40;70.20;;;;;;5094539;28;20024;-58
2022/04/15 12:16:45;;;;;;;9.68;7.38;;;26.30;69.80;;;;;;5094095;28;20085;-59
2022/04/15 12:19:11;;;;;;;11.02;8.57;;;25.50;71.40;;;;;;5094046;28;20357;-59
2022/04/15 12:21:37;;;;;;;9.60;8.50;;;24.80;75.90;;;;;;5094138;28;20035;-59
2022/04/15 12:24:09;;;;;;;13.38;9.95;;;25.10;76.00;;;;;;5094198;28;20081;-59
2022/04/15 12:26:41;;;;;;;10.75;9.55;;;24.90;75.80;;;;;;5094333;28;20389;-59
2022/04/15 12:31:52;;;;;;;11.63;10.40;;;24.70;77.40;;;;;;5093919;28;20031;-59
2022/04/15 12:34:28;;;;;;;13.27;10.60;;;25.90;74.80;;;;;;5094431;28;20032;-59